createdAt,value
2016-09-01T00:00:28.043Z,1127.71
2016-09-01T00:01:28.055Z,1127.7
2016-09-01T00:02:28.043Z,1127.55
2016-09-01T00:03:28.071Z,1127.42
2016-09-01T00:04:28.063Z,1127.27
2016-09-01T00:05:28.057Z,1127.18
2016-09-01T00:06:28.094Z,1127.15
2016-09-01T00:07:28.054Z,1127.13
2016-09-01T00:08:28.053Z,1127
2016-09-01T00:09:28.053Z,1126.96
2016-09-01T00:10:28.061Z,1127.06
2016-09-01T00:11:28.063Z,1126.87
2016-09-01T00:12:28.059Z,1126.98
2016-09-01T00:13:28.057Z,1126.7
2016-09-01T00:14:28.056Z,1126.6
2016-09-01T00:15:28.055Z,1126.41
2016-09-01T00:16:28.071Z,1126.3
2016-09-01T00:17:28.055Z,1126.37
2016-09-01T00:18:28.068Z,1126.17
2016-09-01T00:19:28.060Z,1125.91
2016-09-01T00:20:28.069Z,1125.71
2016-09-01T00:21:28.087Z,1125.69
2016-09-01T00:22:28.066Z,1125.39
2016-09-01T00:23:28.075Z,1125.27
2016-09-01T00:24:28.072Z,1125.17
2016-09-01T00:25:28.081Z,1125.08
2016-09-01T00:26:28.073Z,1124.89
2016-09-01T00:27:28.075Z,1124.8
2016-09-01T00:28:28.073Z,1124.55
2016-09-01T00:29:28.074Z,1124.27
2016-09-01T00:30:28.071Z,1124.17
2016-09-01T00:31:28.074Z,1123.66
2016-09-01T00:32:28.090Z,1123.76
2016-09-01T00:33:28.075Z,1123.28
2016-09-01T00:34:28.081Z,1123.07
2016-09-01T00:35:28.075Z,1122.69
2016-09-01T00:36:28.110Z,1122.65
2016-09-01T00:37:28.086Z,1122.34
2016-09-01T00:38:28.093Z,1122.25
2016-09-01T00:39:28.073Z,1122.12
2016-09-01T00:40:28.106Z,1122.03
2016-09-01T00:41:28.069Z,1121.79
2016-09-01T00:42:28.091Z,1121.61
2016-09-01T00:43:28.084Z,1121.61
2016-09-01T00:44:28.076Z,1121.33
2016-09-01T00:45:28.081Z,1121.49
2016-09-01T00:46:28.087Z,1121.21
2016-09-01T00:47:28.088Z,1121.14
2016-09-01T00:48:28.087Z,1121.28
2016-09-01T00:49:28.108Z,1121.02
2016-09-01T00:50:28.088Z,1121.17
2016-09-01T00:51:28.094Z,1121.38
2016-09-01T00:52:28.108Z,1121.33
2016-09-01T00:53:28.111Z,1121.46
2016-09-01T00:54:28.087Z,1121.7
2016-09-01T00:55:28.093Z,1121.78
2016-09-01T00:56:28.153Z,1121.95
2016-09-01T00:57:28.092Z,1122.31
2016-09-01T00:58:28.088Z,1122.6
2016-09-01T00:59:28.098Z,1123
2016-09-01T01:00:28.108Z,1123.64
2016-09-01T01:01:28.087Z,1124.31
2016-09-01T01:02:28.093Z,1124.7
2016-09-01T01:03:28.104Z,1125.21
2016-09-01T01:04:28.104Z,1125.53
2016-09-01T01:05:28.108Z,1125.77
2016-09-01T01:06:28.103Z,1125.98
2016-09-01T01:07:28.096Z,1126.05
2016-09-01T01:08:28.105Z,1126.38
2016-09-01T01:09:28.121Z,1126.33
2016-09-01T01:10:28.105Z,1126.38
2016-09-01T01:11:28.100Z,1126.13
2016-09-01T01:12:28.106Z,1126.02
2016-09-01T01:13:28.103Z,1125.94
2016-09-01T01:14:28.104Z,1125.84
2016-09-01T01:15:28.118Z,1125.63
2016-09-01T01:16:28.107Z,1125.43
2016-09-01T01:17:28.108Z,1125.21
2016-09-01T01:18:28.106Z,1125.27
2016-09-01T01:19:28.117Z,1125.13
2016-09-01T01:20:28.114Z,1124.79
2016-09-01T01:21:28.109Z,1124.8
2016-09-01T01:22:28.122Z,1124.59
2016-09-01T01:23:28.108Z,1124.62
2016-09-01T01:24:28.119Z,1124.42
2016-09-01T01:25:28.116Z,1124.4
2016-09-01T01:26:28.119Z,1124.26
2016-09-01T01:27:28.115Z,1124.12
2016-09-01T01:28:28.121Z,1123.89
2016-09-01T01:29:28.122Z,1123.86
2016-09-01T01:30:28.123Z,1123.71
2016-09-01T01:31:28.130Z,1123.63
2016-09-01T01:32:28.138Z,1123.5
2016-09-01T01:33:28.121Z,1123.34
2016-09-01T01:34:28.122Z,1123.26
2016-09-01T01:35:28.137Z,1123.28
2016-09-01T01:36:28.128Z,1122.95
2016-09-01T01:37:28.118Z,1123.01
2016-09-01T01:38:28.142Z,1122.69
2016-09-01T01:39:28.132Z,1122.55
2016-09-01T01:40:28.153Z,1121.95
2016-09-01T01:41:28.134Z,1121.9
2016-09-01T01:42:28.139Z,1121.63
2016-09-01T01:43:28.133Z,1121.28
2016-09-01T01:44:28.134Z,1121.14
2016-09-01T01:45:28.133Z,1120.67
2016-09-01T01:46:28.134Z,1120.59
2016-09-01T01:47:28.141Z,1120.34
2016-09-01T01:48:28.133Z,1119.98
2016-09-01T01:49:28.136Z,1119.98
2016-09-01T01:50:28.174Z,1119.71
2016-09-01T01:51:28.135Z,1119.5
2016-09-01T01:52:28.143Z,1119.4
2016-09-01T01:53:28.139Z,1119.25
2016-09-01T01:54:28.154Z,1119.16
2016-09-01T01:55:28.147Z,1118.99
2016-09-01T01:56:28.152Z,1118.96
2016-09-01T01:57:28.160Z,1118.77
2016-09-01T01:58:28.151Z,1118.73
2016-09-01T01:59:28.153Z,1118.42
2016-09-01T02:00:28.179Z,1118.3
2016-09-01T02:01:28.155Z,1118.01
2016-09-01T02:02:28.164Z,1117.76
2016-09-01T02:03:28.151Z,1117.47
2016-09-01T02:04:28.158Z,1117.21
2016-09-01T02:05:28.153Z,1116.85
2016-09-01T02:06:28.174Z,1116.29
2016-09-01T02:07:28.150Z,1116.18
2016-09-01T02:08:28.172Z,1115.75
2016-09-01T02:09:28.151Z,1115.53
2016-09-01T02:10:28.153Z,1115.27
2016-09-01T02:11:28.179Z,1115.03
2016-09-01T02:12:28.153Z,1114.65
2016-09-01T02:13:28.169Z,1114.38
2016-09-01T02:14:28.152Z,1114.39
2016-09-01T02:15:28.159Z,1114.35
2016-09-01T02:16:28.171Z,1114.17
2016-09-01T02:17:28.170Z,1114.22
2016-09-01T02:18:28.166Z,1114.52
2016-09-01T02:19:28.166Z,1114.59
2016-09-01T02:20:28.176Z,1114.86
2016-09-01T02:21:28.171Z,1115.17
2016-09-01T02:22:28.164Z,1115.75
2016-09-01T02:23:28.187Z,1116.31
2016-09-01T02:24:28.168Z,1117.17
2016-09-01T02:25:28.164Z,1117.57
2016-09-01T02:26:28.171Z,1118.11
2016-09-01T02:27:28.171Z,1118.84
2016-09-01T02:28:28.166Z,1119.3
2016-09-01T02:29:28.181Z,1120.21
2016-09-01T02:30:28.175Z,1120.7
2016-09-01T02:31:28.172Z,1121.4
2016-09-01T02:32:28.180Z,1121.87
2016-09-01T02:33:28.171Z,1122.27
2016-09-01T02:34:28.178Z,1122.72
2016-09-01T02:35:28.185Z,1123.43
2016-09-01T02:36:28.192Z,1123.51
2016-09-01T02:37:28.182Z,1123.84
2016-09-01T02:38:28.187Z,1124.26
2016-09-01T02:39:28.183Z,1124.64
2016-09-01T02:40:28.200Z,1124.65
2016-09-01T02:41:28.207Z,1124.92
2016-09-01T02:42:28.188Z,1124.82
2016-09-01T02:43:28.196Z,1124.79
2016-09-01T02:44:28.186Z,1124.63
2016-09-01T02:45:28.190Z,1124.45
2016-09-01T02:46:28.207Z,1124.09
2016-09-01T02:47:28.196Z,1124.06
2016-09-01T02:48:28.184Z,1123.62
2016-09-01T02:49:28.185Z,1123.15
2016-09-01T02:50:28.184Z,1122.82
2016-09-01T02:51:28.188Z,1122.52
2016-09-01T02:52:28.185Z,1122.09
2016-09-01T02:53:28.205Z,1121.86
2016-09-01T02:54:28.195Z,1121.42
2016-09-01T02:55:28.186Z,1121.01
2016-09-01T02:56:28.197Z,1120.58
2016-09-01T02:57:28.202Z,1120.29
2016-09-01T02:58:28.201Z,1119.76
2016-09-01T02:59:28.194Z,1119.37
2016-09-01T03:00:28.188Z,1119.01
2016-09-01T03:01:28.198Z,1118.57
2016-09-01T03:02:28.199Z,1118.21
2016-09-01T03:03:28.199Z,1117.4
2016-09-01T03:04:28.203Z,1117.05
2016-09-01T03:05:28.205Z,1116.42
2016-09-01T03:06:28.203Z,1115.67
2016-09-01T03:07:28.216Z,1115.13
2016-09-01T03:08:28.198Z,1114.88
2016-09-01T03:09:28.220Z,1114.28
2016-09-01T03:10:28.216Z,1113.87
2016-09-01T03:11:28.203Z,1113.41
2016-09-01T03:12:28.210Z,1112.94
2016-09-01T03:13:28.221Z,1112.33
2016-09-01T03:14:28.215Z,1112.2
2016-09-01T03:15:28.230Z,1111.76
2016-09-01T03:16:28.212Z,1111.5
2016-09-01T03:17:28.216Z,1111.54
2016-09-01T03:18:28.209Z,1111
2016-09-01T03:19:28.214Z,1110.93
2016-09-01T03:20:28.214Z,1110.87
2016-09-01T03:21:28.229Z,1110.74
2016-09-01T03:22:28.219Z,1110.75
2016-09-01T03:23:28.222Z,1110.71
2016-09-01T03:24:28.377Z,1110.75
2016-09-01T03:25:28.215Z,1110.76
2016-09-01T03:26:28.228Z,1110.22
2016-09-01T03:27:28.231Z,1110.4
2016-09-01T03:28:28.234Z,1110.4
2016-09-01T03:29:28.243Z,1110.41
2016-09-01T03:30:28.232Z,1109.93
2016-09-01T03:31:28.236Z,1110.14
2016-09-01T03:32:28.233Z,1109.19
2016-09-01T03:33:28.233Z,1109.2
2016-09-01T03:34:28.228Z,1108.62
2016-09-01T03:35:28.236Z,1108.73
2016-09-01T03:36:28.230Z,1108.35
2016-09-01T03:37:28.234Z,1108
2016-09-01T03:38:28.230Z,1107.43
2016-09-01T03:39:28.251Z,1106.93
2016-09-01T03:40:28.232Z,1106.22
2016-09-01T03:41:28.233Z,1106.14
2016-09-01T03:42:28.247Z,1105.58
2016-09-01T03:43:28.254Z,1105.22
2016-09-01T03:44:28.231Z,1104.7
2016-09-01T03:45:28.233Z,1104.38
2016-09-01T03:46:28.248Z,1104.02
2016-09-01T03:47:28.234Z,1103.76
2016-09-01T03:48:28.292Z,1103.14
2016-09-01T03:49:28.246Z,1102.66
2016-09-01T03:50:28.236Z,1102.31
2016-09-01T03:51:28.266Z,1102.16
2016-09-01T03:52:28.248Z,1101.89
2016-09-01T03:53:28.239Z,1101.32
2016-09-01T03:54:28.468Z,1101.63
2016-09-01T03:55:28.255Z,1101.13
2016-09-01T03:56:28.246Z,1101.16
2016-09-01T03:57:28.780Z,1101.04
2016-09-01T03:58:28.248Z,1101.36
2016-09-01T03:59:28.247Z,1101.57
2016-09-01T04:00:28.248Z,1101.61
2016-09-01T04:01:28.249Z,1101.91
2016-09-01T04:02:28.261Z,1102.28
2016-09-01T04:03:28.263Z,1103.02
2016-09-01T04:04:28.252Z,1103.3
2016-09-01T04:05:28.247Z,1103.9
2016-09-01T04:06:28.249Z,1103.5
2016-09-01T04:07:28.260Z,1104.9
2016-09-01T04:08:28.253Z,1105.75
2016-09-01T04:09:28.260Z,1106.15
2016-09-01T04:10:28.250Z,1106.78
2016-09-01T04:11:28.258Z,1107.43
2016-09-01T04:12:28.262Z,1107.96
2016-09-01T04:13:28.255Z,1108.32
2016-09-01T04:14:28.265Z,1108.96
2016-09-01T04:15:28.255Z,1109.32
2016-09-01T04:16:28.259Z,1109.75
2016-09-01T04:17:28.253Z,1110.07
2016-09-01T04:18:28.263Z,1110.52
2016-09-01T04:19:28.265Z,1110.97
2016-09-01T04:20:28.273Z,1110.91
2016-09-01T04:21:28.338Z,1111.25
2016-09-01T04:22:28.284Z,1111.39
2016-09-01T04:23:28.269Z,1111.41
2016-09-01T04:24:28.275Z,1111.55
2016-09-01T04:25:28.267Z,1111.85
2016-09-01T04:26:28.282Z,1111.96
2016-09-01T04:27:28.578Z,1111.99
2016-09-01T04:28:28.269Z,1112.16
2016-09-01T04:29:28.286Z,1112.12
2016-09-01T04:30:28.733Z,1112.2
2016-09-01T04:31:28.279Z,1112.18
2016-09-01T04:32:28.284Z,1112.16
2016-09-01T04:33:28.381Z,1112.36
2016-09-01T04:34:28.279Z,1112.51
2016-09-01T04:35:28.295Z,1112.66
2016-09-01T04:36:28.323Z,1112.68
2016-09-01T04:37:28.312Z,1112.62
2016-09-01T04:38:28.289Z,1112.78
2016-09-01T04:39:28.384Z,1112.68
2016-09-01T04:40:28.319Z,1112.61
2016-09-01T04:41:28.697Z,1112.56
2016-09-01T04:42:28.347Z,1112.52
2016-09-01T04:43:29.583Z,1112.41
2016-09-01T04:44:28.292Z,1112.24
2016-09-01T04:45:28.282Z,1112.33
2016-09-01T04:46:28.380Z,1112.21
2016-09-01T04:47:28.551Z,1112.16
2016-09-01T04:48:28.823Z,1111.91
2016-09-01T04:49:28.330Z,1112.01
2016-09-01T04:50:28.298Z,1112.04
2016-09-01T04:51:28.459Z,1111.69
2016-09-01T04:52:28.300Z,1111.6
2016-09-01T04:53:28.388Z,1111.37
2016-09-01T04:54:28.340Z,1111.23
2016-09-01T04:55:28.414Z,1110.98
2016-09-01T04:56:28.293Z,1110.95
2016-09-01T04:57:28.446Z,1110.72
2016-09-01T04:58:28.311Z,1110.9
2016-09-01T04:59:28.315Z,1110.71
2016-09-01T05:00:28.328Z,1110.51
2016-09-01T05:01:28.388Z,1110.71
2016-09-01T05:02:28.296Z,1110.94
2016-09-01T05:03:28.327Z,1111.03
2016-09-01T05:04:28.309Z,1110.95
2016-09-01T05:05:28.294Z,1111.13
2016-09-01T05:06:29.465Z,1111.43
2016-09-01T05:07:28.315Z,1111.74
2016-09-01T05:08:28.306Z,1111.79
2016-09-01T05:09:28.326Z,1112.02
2016-09-01T05:10:29.212Z,1112.52
2016-09-01T05:11:28.312Z,1112.6
2016-09-01T05:12:28.315Z,1112.94
2016-09-01T05:13:28.312Z,1113.2
2016-09-01T05:14:28.312Z,1113.45
2016-09-01T05:15:28.952Z,1113.91
2016-09-01T05:16:28.314Z,1114.26
2016-09-01T05:17:28.309Z,1114.51
2016-09-01T05:18:28.314Z,1115.09
2016-09-01T05:19:28.324Z,1115.52
2016-09-01T05:20:28.324Z,1115.94
2016-09-01T05:21:28.326Z,1116.55
2016-09-01T05:22:28.316Z,1117.25
2016-09-01T05:23:28.395Z,1117.84
2016-09-01T05:24:28.431Z,1118.31
2016-09-01T05:25:28.328Z,1118.98
2016-09-01T05:26:28.436Z,1119.94
2016-09-01T05:27:28.346Z,1120.55
2016-09-01T05:28:28.333Z,1121.71
2016-09-01T05:29:28.327Z,1122.7
2016-09-01T05:30:28.554Z,1123.61
2016-09-01T05:31:28.327Z,1124.71
2016-09-01T05:32:28.336Z,1125.85
2016-09-01T05:33:28.365Z,1126.84
2016-09-01T05:34:28.328Z,1127.95
2016-09-01T05:35:28.332Z,1129.14
2016-09-01T05:36:28.332Z,1130.45
2016-09-01T05:37:28.324Z,1131.85
2016-09-01T05:38:28.329Z,1133.2
2016-09-01T05:39:28.347Z,1134.44
2016-09-01T05:40:28.326Z,1135.39
2016-09-01T05:41:28.363Z,1136.31
2016-09-01T05:42:28.411Z,1137.68
2016-09-01T05:43:28.331Z,1138.63
2016-09-01T05:44:28.367Z,1140.06
2016-09-01T05:45:28.782Z,1141.51
2016-09-01T05:46:28.511Z,1143.1
2016-09-01T05:47:28.344Z,1145.17
2016-09-01T05:48:28.360Z,1147.03
2016-09-01T05:49:28.345Z,1148.67
2016-09-01T05:50:28.356Z,1150.09
2016-09-01T05:51:28.832Z,1150.88
2016-09-01T05:52:28.345Z,1151.72
2016-09-01T05:53:29.215Z,1152.49
2016-09-01T05:54:28.359Z,1153.56
2016-09-01T05:55:28.387Z,1154.3
2016-09-01T05:56:28.378Z,1155.17
2016-09-01T05:57:28.445Z,1155.91
2016-09-01T05:58:28.403Z,1156.68
2016-09-01T05:59:28.366Z,1157.51
2016-09-01T06:00:28.360Z,1158.46
2016-09-01T06:01:28.381Z,1159.28
2016-09-01T06:02:28.359Z,1159.88
2016-09-01T06:03:28.407Z,1160.41
2016-09-01T06:04:28.389Z,1160.69
2016-09-01T06:05:28.406Z,1161.18
2016-09-01T06:06:28.373Z,1161.52
2016-09-01T06:07:28.375Z,1161.79
2016-09-01T06:08:28.400Z,1162.13
2016-09-01T06:09:28.420Z,1162.37
2016-09-01T06:10:28.405Z,1162.69
2016-09-01T06:11:28.387Z,1162.92
2016-09-01T06:12:28.395Z,1163.21
2016-09-01T06:13:28.418Z,1163.45
2016-09-01T06:14:28.419Z,1163.68
2016-09-01T06:15:28.387Z,1163.91
2016-09-01T06:16:28.443Z,1163.96
2016-09-01T06:17:28.389Z,1164.17
2016-09-01T06:18:28.363Z,1164.32
2016-09-01T06:19:28.376Z,1164.45
2016-09-01T06:20:28.509Z,1164.58
2016-09-01T06:21:28.362Z,1164.69
2016-09-01T06:22:28.375Z,1164.79
2016-09-01T06:23:28.383Z,1164.9
2016-09-01T06:24:28.378Z,1165
2016-09-01T06:25:28.433Z,1165.1
2016-09-01T06:26:28.378Z,1165.18
2016-09-01T06:27:28.381Z,1165.28
2016-09-01T06:28:28.388Z,1165.35
2016-09-01T06:29:28.395Z,1165.41
2016-09-01T06:30:28.435Z,1165.49
2016-09-01T06:31:28.378Z,1165.56
2016-09-01T06:32:28.377Z,1165.72
2016-09-01T06:33:28.392Z,1165.84
2016-09-01T06:34:28.394Z,1165.9
2016-09-01T06:35:28.387Z,1165.94
2016-09-01T06:36:28.394Z,1166.07
2016-09-01T06:37:28.391Z,1166.1
2016-09-01T06:38:28.398Z,1166.16
2016-09-01T06:39:28.386Z,1166.2
2016-09-01T06:40:28.407Z,1166.25
2016-09-01T06:41:28.398Z,1166.32
2016-09-01T06:42:28.391Z,1166.4
2016-09-01T06:43:28.389Z,1166.39
2016-09-01T06:44:28.394Z,1166.46
2016-09-01T06:45:28.391Z,1166.49
2016-09-01T06:46:28.406Z,1166.47
2016-09-01T06:47:28.416Z,1166.44
2016-09-01T06:48:28.402Z,1166.43
2016-09-01T06:49:28.409Z,1166.37
2016-09-01T06:50:28.397Z,1166.3
2016-09-01T06:51:28.422Z,1166.22
2016-09-01T06:52:28.411Z,1166.1
2016-09-01T06:53:28.435Z,1165.99
2016-09-01T06:54:28.424Z,1165.85
2016-09-01T06:55:28.475Z,1165.71
2016-09-01T06:56:28.468Z,1165.55
2016-09-01T06:57:28.440Z,1165.44
2016-09-01T06:58:28.427Z,1165.27
2016-09-01T06:59:28.414Z,1165.03
2016-09-01T07:00:28.411Z,1164.72
2016-09-01T07:01:28.410Z,1164.33
2016-09-01T07:02:28.426Z,1163.76
2016-09-01T07:03:28.438Z,1163.23
2016-09-01T07:04:28.490Z,1162.66
2016-09-01T07:05:28.482Z,1162.13
2016-09-01T07:06:28.457Z,1161.72
2016-09-01T07:07:28.978Z,1161.26
2016-09-01T07:08:28.463Z,1160.83
2016-09-01T07:09:28.458Z,1160.4
2016-09-01T07:10:28.433Z,1160.05
2016-09-01T07:11:28.454Z,1159.76
2016-09-01T07:12:28.492Z,1159.4
2016-09-01T07:13:28.452Z,1159.38
2016-09-01T07:14:28.466Z,1159.34
2016-09-01T07:15:28.464Z,1159.24
2016-09-01T07:16:29.107Z,1159.3
2016-09-01T07:17:28.490Z,1159.29
2016-09-01T07:18:28.469Z,1159.28
2016-09-01T07:19:28.498Z,1159.3
2016-09-01T07:20:29.128Z,1159.56
2016-09-01T07:21:29.079Z,1159.63
2016-09-01T07:22:28.461Z,1159.75
2016-09-01T07:23:28.443Z,1159.84
2016-09-01T07:24:28.484Z,1159.95
2016-09-01T07:25:28.469Z,1159.95
2016-09-01T07:26:28.472Z,1159.91
2016-09-01T07:27:28.488Z,1159.94
2016-09-01T07:28:28.502Z,1160.01
2016-09-01T07:29:28.507Z,1160.05
2016-09-01T07:30:28.500Z,1159.96
2016-09-01T07:31:28.506Z,1159.94
2016-09-01T07:32:28.499Z,1159.68
2016-09-01T07:33:28.483Z,1159.43
2016-09-01T07:34:28.504Z,1159.34
2016-09-01T07:35:29.271Z,1159.21
2016-09-01T07:36:29.417Z,1159.05
2016-09-01T07:37:28.969Z,1158.78
2016-09-01T07:38:28.489Z,1158.44
2016-09-01T07:39:28.509Z,1158.13
2016-09-01T07:40:29.490Z,1157.87
2016-09-01T07:41:28.515Z,1157.69
2016-09-01T07:42:28.521Z,1157.66
2016-09-01T07:43:28.510Z,1157.39
2016-09-01T07:44:28.515Z,1157.1
2016-09-01T07:45:29.443Z,1156.99
2016-09-01T07:46:28.519Z,1156.87
2016-09-01T07:47:28.500Z,1157.06
2016-09-01T07:48:28.530Z,1157.23
2016-09-01T07:49:29.091Z,1157.5
2016-09-01T07:50:28.514Z,1157.39
2016-09-01T07:51:28.553Z,1157.11
2016-09-01T07:52:28.549Z,1156.75
2016-09-01T07:53:28.513Z,1156.43
2016-09-01T07:54:28.504Z,1155.9
2016-09-01T07:55:28.478Z,1155.47
2016-09-01T07:56:28.489Z,1154.95
2016-09-01T07:57:28.531Z,1154.38
2016-09-01T07:58:28.548Z,1153.74
2016-09-01T07:59:28.552Z,1153.22
2016-09-01T08:00:28.510Z,1153.1
2016-09-01T08:01:28.759Z,1152.88
2016-09-01T08:02:28.501Z,1152.43
2016-09-01T08:03:28.485Z,1151.76
2016-09-01T08:04:28.507Z,1151.21
2016-09-01T08:05:28.476Z,1150.78
2016-09-01T08:06:28.476Z,1150.82
2016-09-01T08:07:28.475Z,1150.99
2016-09-01T08:08:28.508Z,1151.18
2016-09-01T08:09:28.521Z,1151.15
2016-09-01T08:10:28.520Z,1150.92
2016-09-01T08:11:28.514Z,1150.52
2016-09-01T08:12:28.496Z,1150.2
2016-09-01T08:13:28.522Z,1149.8
2016-09-01T08:14:28.516Z,1149.37
2016-09-01T08:15:28.573Z,1148.95
2016-09-01T08:16:28.524Z,1148.24
2016-09-01T08:17:28.503Z,1147.5
2016-09-01T08:18:28.506Z,1147.01
2016-09-01T08:19:28.487Z,1146.43
2016-09-01T08:20:28.487Z,1145.94
2016-09-01T08:21:28.547Z,1145.3
2016-09-01T08:22:28.667Z,1144.61
2016-09-01T08:23:28.551Z,1144.4
2016-09-01T08:24:29.188Z,1144.06
2016-09-01T08:25:28.551Z,1143.65
2016-09-01T08:26:29.569Z,1143.19
2016-09-01T08:27:29.017Z,1142.82
2016-09-01T08:28:28.561Z,1142.38
2016-09-01T08:29:28.550Z,1141.6
2016-09-01T08:30:28.544Z,1140.94
2016-09-01T08:31:28.591Z,1140.37
2016-09-01T08:32:28.592Z,1139.98
2016-09-01T08:33:29.054Z,1140.03
2016-09-01T08:34:29.196Z,1140.38
2016-09-01T08:35:28.532Z,1140.72
2016-09-01T08:36:28.564Z,1141.31
2016-09-01T08:37:29.235Z,1142.14
2016-09-01T08:38:28.568Z,1142.88
2016-09-01T08:39:28.540Z,1143.14
2016-09-01T08:40:29.060Z,1143.34
2016-09-01T08:41:29.206Z,1143.62
2016-09-01T08:42:28.552Z,1143.51
2016-09-01T08:43:28.563Z,1143.65
2016-09-01T08:44:28.637Z,1143.76
2016-09-01T08:45:28.600Z,1143.32
2016-09-01T08:46:28.572Z,1143.08
2016-09-01T08:47:28.593Z,1142.84
2016-09-01T08:48:28.563Z,1142.58
2016-09-01T08:49:28.566Z,1142.2
2016-09-01T08:50:29.545Z,1141.82
2016-09-01T08:51:28.550Z,1141.29
2016-09-01T08:52:28.579Z,1140.88
2016-09-01T08:53:28.545Z,1140.34
2016-09-01T08:54:28.600Z,1139.87
2016-09-01T08:55:28.613Z,1139.48
2016-09-01T08:56:28.576Z,1139.08
2016-09-01T08:57:28.606Z,1138.69
2016-09-01T08:58:28.543Z,1138.54
2016-09-01T08:59:28.595Z,1138.43
2016-09-01T09:00:28.617Z,1138.05
2016-09-01T09:01:28.563Z,1137.48
2016-09-01T09:02:28.568Z,1136.98
2016-09-01T09:03:28.623Z,1136.69
2016-09-01T09:04:28.659Z,1136.36
2016-09-01T09:05:28.639Z,1135.76
2016-09-01T09:06:28.612Z,1135.41
2016-09-01T09:07:28.606Z,1135.13
2016-09-01T09:08:29.181Z,1134.29
2016-09-01T09:09:28.581Z,1133.77
2016-09-01T09:10:28.583Z,1132.97
2016-09-01T09:11:28.629Z,1132.35
2016-09-01T09:12:29.106Z,1131.32
2016-09-01T09:13:28.595Z,1130.64
2016-09-01T09:14:28.596Z,1129.95
2016-09-01T09:15:28.584Z,1128.95
2016-09-01T09:16:28.570Z,1127.96
2016-09-01T09:17:28.596Z,1127.42
2016-09-01T09:18:28.576Z,1126.71
2016-09-01T09:19:28.598Z,1126.25
2016-09-01T09:20:28.581Z,1125.59
2016-09-01T09:21:28.783Z,1124.86
2016-09-01T09:22:29.066Z,1124.51
2016-09-01T09:23:28.617Z,1123.81
2016-09-01T09:24:28.630Z,1123.19
2016-09-01T09:25:28.642Z,1122.86
2016-09-01T09:26:28.614Z,1122.11
2016-09-01T09:27:28.650Z,1121.96
2016-09-01T09:28:28.601Z,1121.57
2016-09-01T09:29:28.596Z,1121.36
2016-09-01T09:30:28.607Z,1120.81
2016-09-01T09:31:28.618Z,1120.13
2016-09-01T09:32:28.616Z,1119.48
2016-09-01T09:33:28.614Z,1118.76
2016-09-01T09:34:28.618Z,1118.51
2016-09-01T09:35:28.631Z,1117.98
2016-09-01T09:36:28.739Z,1117.56
2016-09-01T09:37:28.624Z,1117.15
2016-09-01T09:38:28.651Z,1116.7
2016-09-01T09:39:28.627Z,1116.46
2016-09-01T09:40:28.617Z,1116.07
2016-09-01T09:41:28.597Z,1115.54
2016-09-01T09:42:28.615Z,1115.28
2016-09-01T09:43:28.617Z,1115.21
2016-09-01T09:44:28.661Z,1114.82
2016-09-01T09:45:28.636Z,1114.04
2016-09-01T09:46:28.646Z,1113.51
2016-09-01T09:47:28.605Z,1113.31
2016-09-01T09:48:28.614Z,1112.67
2016-09-01T09:49:28.632Z,1112.35
2016-09-01T09:50:28.667Z,1111.92
2016-09-01T09:51:28.618Z,1111.4
2016-09-01T09:52:28.618Z,1111.15
2016-09-01T09:53:28.643Z,1110.51
2016-09-01T09:54:28.625Z,1109.83
2016-09-01T09:55:28.611Z,1109.59
2016-09-01T09:56:28.687Z,1109.12
2016-09-01T09:57:29.222Z,1108.39
2016-09-01T09:58:28.627Z,1107.88
2016-09-01T09:59:28.634Z,1107.48
2016-09-01T10:00:28.626Z,1107.37
2016-09-01T10:01:28.625Z,1106.88
2016-09-01T10:02:28.673Z,1106.22
2016-09-01T10:03:28.673Z,1105.12
2016-09-01T10:04:28.636Z,1104.23
2016-09-01T10:05:28.628Z,1103.19
2016-09-01T10:06:28.621Z,1102.68
2016-09-01T10:07:28.596Z,1101.96
2016-09-01T10:08:28.620Z,1101.51
2016-09-01T10:09:29.258Z,1100.9
2016-09-01T10:10:29.249Z,1100.27
2016-09-01T10:11:28.641Z,1099.33
2016-09-01T10:12:28.637Z,1098.53
2016-09-01T10:13:28.655Z,1097.91
2016-09-01T10:14:28.632Z,1096.72
2016-09-01T10:15:28.644Z,1095.64
2016-09-01T10:16:28.689Z,1094.72
2016-09-01T10:17:28.647Z,1093.58
2016-09-01T10:18:28.647Z,1092.46
2016-09-01T10:19:28.675Z,1091.88
2016-09-01T10:20:29.252Z,1091.38
2016-09-01T10:21:28.656Z,1090.35
2016-09-01T10:22:28.626Z,1089.59
2016-09-01T10:23:28.679Z,1088.79
2016-09-01T10:24:28.660Z,1087.61
2016-09-01T10:25:28.666Z,1086.42
2016-09-01T10:26:28.697Z,1085.44
2016-09-01T10:27:28.635Z,1084.49
2016-09-01T10:28:28.659Z,1083.47
2016-09-01T10:29:28.634Z,1081.9
2016-09-01T10:30:28.655Z,1080.91
2016-09-01T10:31:29.263Z,1079.75
2016-09-01T10:32:28.681Z,1078.81
2016-09-01T10:33:28.658Z,1077.57
2016-09-01T10:34:28.691Z,1076.33
2016-09-01T10:35:28.750Z,1074.59
2016-09-01T10:36:28.709Z,1073.1
2016-09-01T10:37:28.674Z,1071.64
2016-09-01T10:38:28.693Z,1070.79
2016-09-01T10:39:28.740Z,1069.81
2016-09-01T10:40:28.719Z,1067.94
2016-09-01T10:41:28.686Z,1065.39
2016-09-01T10:42:28.687Z,1064.03
2016-09-01T10:43:28.665Z,1061.19
2016-09-01T10:44:28.693Z,1057.32
2016-09-01T10:45:28.680Z,1053.6
2016-09-01T10:46:28.708Z,1050.22
2016-09-01T10:47:28.684Z,1047.46
2016-09-01T10:48:28.684Z,1044.07
2016-09-01T10:49:28.637Z,1039.7
2016-09-01T10:50:28.705Z,1035.59
2016-09-01T10:51:28.686Z,1029.91
2016-09-01T10:52:28.690Z,1024.01
2016-09-01T10:53:28.720Z,1018.26
2016-09-01T10:54:28.688Z,1013.4
2016-09-01T10:55:28.681Z,1008.32
2016-09-01T10:56:29.329Z,1004.25
2016-09-01T10:57:28.684Z,1000.41
2016-09-01T10:58:28.712Z,994.57
2016-09-01T10:59:28.690Z,989.87
2016-09-01T11:00:28.683Z,984.47
2016-09-01T11:01:28.724Z,978.7
2016-09-01T11:02:28.687Z,974.01
2016-09-01T11:03:29.309Z,970.37
2016-09-01T11:04:29.691Z,968.04
2016-09-01T11:05:28.691Z,964.59
2016-09-01T11:06:28.687Z,960.92
2016-09-01T11:07:28.695Z,957.85
2016-09-01T11:08:28.708Z,955.96
2016-09-01T11:09:29.605Z,952.45
2016-09-01T11:10:28.689Z,950.02
2016-09-01T11:11:28.701Z,948.95
2016-09-01T11:12:28.696Z,949.88
2016-09-01T11:13:28.694Z,949.12
2016-09-01T11:14:29.583Z,948.12
2016-09-01T11:15:28.709Z,948.62
2016-09-01T11:16:28.742Z,948.12
2016-09-01T11:17:28.699Z,945.67
2016-09-01T11:18:28.699Z,943.56
2016-09-01T11:19:29.503Z,942.55
2016-09-01T11:20:28.722Z,942.16
2016-09-01T11:21:29.661Z,940.28
2016-09-01T11:22:28.751Z,938.73
2016-09-01T11:23:28.738Z,939.33
2016-09-01T11:24:28.728Z,941.78
2016-09-01T11:25:28.735Z,943.08
2016-09-01T11:26:28.750Z,945.06
2016-09-01T11:27:28.755Z,947.16
2016-09-01T11:28:28.777Z,950.06
2016-09-01T11:29:28.683Z,952.83
2016-09-01T11:30:28.747Z,955.11
2016-09-01T11:31:28.734Z,954.71
2016-09-01T11:32:28.740Z,952.21
2016-09-01T11:33:28.723Z,949.97
2016-09-01T11:34:28.740Z,945.64
2016-09-01T11:35:28.740Z,942.17
2016-09-01T11:36:28.760Z,938.06
2016-09-01T11:37:28.730Z,934.86
2016-09-01T11:38:28.732Z,931.46
2016-09-01T11:39:28.731Z,928.52
2016-09-01T11:40:28.741Z,927.62
2016-09-01T11:41:28.766Z,929.36
2016-09-01T11:42:28.753Z,932.65
2016-09-01T11:43:28.712Z,935.12
2016-09-01T11:44:28.695Z,936.06
2016-09-01T11:45:28.700Z,938.11
2016-09-01T11:46:28.702Z,941.5
2016-09-01T11:47:28.735Z,945.49
2016-09-01T11:48:28.701Z,947.27
2016-09-01T11:49:28.753Z,948.69
2016-09-01T11:50:28.743Z,949.92
2016-09-01T11:51:28.718Z,950.28
2016-09-01T11:52:28.749Z,950.91
2016-09-01T11:53:28.752Z,952.64
2016-09-01T11:55:28.748Z,957.09
2016-09-01T11:56:28.710Z,959.46
2016-09-01T11:57:28.713Z,963.9
2016-09-01T11:58:28.733Z,969.91
2016-09-01T11:59:28.761Z,975.26
2016-09-01T12:00:28.725Z,979.2
2016-09-01T12:01:28.716Z,981.07
2016-09-01T12:02:28.749Z,981.96
2016-09-01T12:03:28.711Z,982.81
2016-09-01T12:04:28.730Z,986.68
2016-09-01T12:05:28.729Z,988.78
2016-09-01T12:06:28.733Z,989.2
2016-09-01T12:07:28.726Z,990.59
2016-09-01T12:08:28.743Z,990.65
2016-09-01T12:09:28.723Z,993.19
2016-09-01T12:10:28.731Z,995.16
2016-09-01T12:11:28.780Z,996.55